MET'MAP v2.0
soon released !

Expected late october,
this new version will be
more efficient, smarter,
and hosted on a brand new
server x3 powerfull...
...and still free !


Not compatible ?
Try the mobile version !

LOG IN : | Subscribe | Disclaimer | Who is Orbifly ? |
ICAO code :

TAF - EICK Cork - 25 Jan 2020 23:58 UTC - Data Source NOAA   


- Airport Elevation : 502 ft
- IATA code : ORK
- No reported NOTAMs.


EICK - Cork

Latest METAR recorded : 2015/08/11 08:00 EICK 110800Z 32007KT 9999 -SHRA FEW010 BKN016 BKN024 12/10 Q1021 NOSIG
TAF TAF EICK
Valid from the 25 at 18:00 until the 26 at 18:00 UTC


251700Z 2518/2618 19012KT 9999 FEW007 BKN020
TEMPO 2518/2521 5000 -DZ SCT005 BKN007
PROB30
TEMPO 2518/2521 3000 BKN005
BECMG 2519/2521 18015G25KT
BECMG 2521/2523 18018G30KT 3000 -RADZ BKN005
TEMPO 2523/2603 2000 BKN003
PROB30
TEMPO 2600/2603 0500 RADZ FG BKN001
BECMG 2603/2605 24014G25KT 9999 NSW SCT015 BKN025
BECMG 2605/2607 27012KT
BECMG 2613/2615 23010KT
PROB40
TEMPO 2614/2618 5000 -SHRA SCT010 SCT018CB
BECMG 2615/2617 20010KT

Source NOAA


MET'MAP, your aeronautical weather chart ! - Copyright ORBIFLY December 2007

Programming & Development : Alexandra Zaïnal
Co-Developer : Marc-Olivier Méhu
Technical & hardware support : Manuel Goepfert
Concept & Financing : Baudouin d'Aumeries